createdAt,value
2019-04-23T00:00:03.745Z,75.60
2019-04-23T00:01:15.313Z,75.85
2019-04-23T00:02:04.032Z,75.27
2019-04-23T00:03:08.584Z,75.66
2019-04-23T00:04:05.947Z,76.04
2019-04-23T00:05:02.393Z,75.85
2019-04-23T00:06:06.956Z,75.76
2019-04-23T00:07:12.831Z,75.37
2019-04-23T00:10:12.726Z,75.79
2019-04-23T00:11:08.795Z,75.31
2019-04-23T00:11:59.927Z,75.60
2019-04-23T00:13:02.264Z,74.45
2019-04-23T00:14:09.998Z,74.84
2019-04-23T00:15:07.654Z,74.84
2019-04-23T00:16:21.825Z,74.93
2019-04-23T00:17:04.735Z,74.84
2019-04-23T00:18:03.059Z,74.55
2019-04-23T00:18:56.057Z,74.45
2019-04-23T00:20:10.063Z,74.36
2019-04-23T00:21:07.393Z,75.51
2019-04-23T00:22:11.295Z,75.02
2019-04-23T00:23:06.106Z,75.60
2019-04-23T00:26:02.619Z,75.41
2019-04-23T00:27:18.734Z,75.51
2019-04-23T00:28:06.589Z,75.12
2019-04-23T00:29:11.751Z,75.51
2019-04-23T00:30:04.457Z,75.60
2019-04-23T00:31:11.865Z,75.70
2019-04-23T00:32:10.389Z,75.79
2019-04-23T00:33:05.839Z,75.56
2019-04-23T00:34:01.206Z,76.04
2019-04-23T00:36:03.169Z,75.66
2019-04-23T00:37:01.553Z,75.95
2019-04-23T00:38:06.557Z,76.14
2019-04-23T00:39:01.825Z,76.42
2019-04-23T00:40:19.130Z,75.85
2019-04-23T00:41:09.388Z,76.04
2019-04-23T00:42:07.102Z,75.85
2019-04-23T00:43:03.442Z,75.95
2019-04-23T00:44:04.190Z,76.71
2019-04-23T00:45:00.421Z,76.33
2019-04-23T00:45:59.391Z,76.62
2019-04-23T00:47:02.590Z,76.71
2019-04-23T00:48:09.291Z,76.42
2019-04-23T00:49:05.493Z,76.42
2019-04-23T00:50:58.469Z,76.90
2019-04-23T00:52:10.656Z,76.90
2019-04-23T00:53:05.863Z,77.57
2019-04-23T00:54:05.934Z,77.38
2019-04-23T00:55:14.745Z,77.63
2019-04-23T00:56:22.088Z,78.20
2019-04-23T00:57:08.986Z,78.68
2019-04-23T00:58:06.305Z,78.78
2019-04-23T00:59:02.699Z,79.16
2019-04-23T01:00:14.130Z,79.25
2019-04-23T01:00:57.899Z,79.16
2019-04-23T01:02:04.148Z,79.93
2019-04-23T01:03:07.429Z,80.02
2019-04-23T01:04:10.171Z,79.44
2019-04-23T01:05:27.709Z,79.25
2019-04-23T01:06:04.595Z,79.25
2019-04-23T01:07:04.488Z,79.25
2019-04-23T01:08:06.272Z,79.54
2019-04-23T01:09:02.160Z,79.35
2019-04-23T01:11:01.835Z,79.64
2019-04-23T01:12:03.510Z,79.64
2019-04-23T01:13:22.755Z,79.64
2019-04-23T01:14:01.023Z,79.73
2019-04-23T01:15:02.815Z,79.64
2019-04-23T01:17:02.654Z,79.44
2019-04-23T01:18:18.657Z,79.06
2019-04-23T01:20:04.767Z,78.97
2019-04-23T01:20:53.540Z,78.78
2019-04-23T01:21:41.202Z,78.39
2019-04-23T01:22:42.177Z,78.39
2019-04-23T01:23:47.066Z,78.39
2019-04-23T01:24:44.094Z,78.39
2019-04-23T01:25:53.737Z,78.49
2019-04-23T01:27:19.723Z,78.87
2019-04-23T01:28:02.512Z,79.44
2019-04-23T01:29:06.968Z,79.35
2019-04-23T01:30:09.744Z,79.73
2019-04-23T01:31:08.950Z,79.98
2019-04-23T01:32:05.322Z,80.07
2019-04-23T01:33:05.887Z,80.74
2019-04-23T01:34:04.410Z,80.65
2019-04-23T01:35:12.730Z,81.22
2019-04-23T01:36:18.916Z,80.84
2019-04-23T01:37:16.001Z,81.13
2019-04-23T01:38:06.231Z,81.70
2019-04-23T01:39:06.217Z,81.41
2019-04-23T01:41:07.753Z,81.22
2019-04-23T01:42:12.955Z,81.79
2019-04-23T01:43:04.279Z,81.03
2019-04-23T01:44:11.515Z,80.36
2019-04-23T01:45:14.966Z,81.13
2019-04-23T01:46:09.547Z,80.84
2019-04-23T01:48:00.103Z,80.55
2019-04-23T01:49:08.754Z,80.17
2019-04-23T01:52:08.317Z,80.07
2019-04-23T01:53:14.570Z,79.79
2019-04-23T01:54:06.738Z,79.88
2019-04-23T01:55:13.764Z,79.88
2019-04-23T01:56:07.082Z,79.98
2019-04-23T01:57:10.432Z,80.07
2019-04-23T01:58:27.477Z,80.36
2019-04-23T01:59:05.178Z,80.36
2019-04-23T02:00:08.808Z,80.27
2019-04-23T02:01:06.535Z,79.41
2019-04-23T02:02:05.136Z,79.69
2019-04-23T02:04:12.780Z,79.41
2019-04-23T02:05:14.133Z,79.88
2019-04-23T02:06:06.710Z,80.07
2019-04-23T02:07:06.161Z,79.88
2019-04-23T02:09:11.000Z,80.36
2019-04-23T02:10:14.221Z,80.46
2019-04-23T02:11:04.802Z,80.36
2019-04-23T02:12:04.143Z,80.07
2019-04-23T02:13:11.332Z,79.88
2019-04-23T02:14:09.572Z,79.88
2019-04-23T02:15:11.495Z,80.55
2019-04-23T02:17:13.658Z,79.88
2019-04-23T02:18:06.609Z,80.46
2019-04-23T02:19:14.344Z,79.88
2019-04-23T02:20:14.185Z,79.98
2019-04-23T02:22:03.963Z,79.50
2019-04-23T02:23:11.665Z,79.88
2019-04-23T02:24:10.950Z,79.79
2019-04-23T02:25:06.863Z,80.07
2019-04-23T02:26:04.771Z,79.69
2019-04-23T02:27:09.870Z,79.79
2019-04-23T02:28:09.074Z,79.88
2019-04-23T02:29:14.575Z,79.98
2019-04-23T02:30:26.258Z,80.17
2019-04-23T02:31:21.655Z,80.36
2019-04-23T02:33:31.859Z,79.79
2019-04-23T02:37:19.179Z,79.69
2019-04-23T02:38:42.896Z,79.22
2019-04-23T02:38:56.339Z,79.41
2019-04-23T02:40:13.952Z,80.36
2019-04-23T02:41:29.757Z,79.79
2019-04-23T02:42:30.701Z,80.04
2019-04-23T02:43:13.374Z,79.85
2019-04-23T02:45:09.445Z,80.13
2019-04-23T02:46:05.760Z,80.32
2019-04-23T02:51:12.577Z,80.32
2019-04-23T02:53:14.694Z,79.46
2019-04-23T02:54:38.185Z,80.04
2019-04-23T02:56:15.168Z,80.04
2019-04-23T02:57:05.552Z,79.85
2019-04-23T02:58:19.195Z,78.99
2019-04-23T03:00:28.676Z,79.46
2019-04-23T03:01:19.465Z,79.36
2019-04-23T03:02:32.706Z,79.08
2019-04-23T03:03:14.103Z,79.08
2019-04-23T03:05:11.693Z,78.60
2019-04-23T03:06:14.513Z,79.27
2019-04-23T03:07:14.082Z,79.36
2019-04-23T03:08:08.342Z,78.70
2019-04-23T03:09:18.899Z,78.79
2019-04-23T03:10:18.169Z,78.70
2019-04-23T03:11:41.084Z,78.28
2019-04-23T03:12:18.341Z,78.99
2019-04-23T03:13:19.401Z,78.99
2019-04-23T03:14:15.558Z,79.46
2019-04-23T03:15:23.781Z,78.31
2019-04-23T03:16:21.825Z,78.31
2019-04-23T03:17:03.042Z,77.84
2019-04-23T03:19:32.383Z,77.74
2019-04-23T03:20:15.562Z,77.94
2019-04-23T03:23:29.041Z,77.36
2019-04-23T03:25:16.762Z,77.26
2019-04-23T03:26:28.684Z,77.36
2019-04-23T03:27:27.460Z,76.60
2019-04-23T03:28:14.676Z,76.60
2019-04-23T03:29:19.964Z,76.50
2019-04-23T03:35:09.052Z,75.30
2019-04-23T03:35:10.686Z,74.88
2019-04-23T03:37:16.164Z,75.30
2019-04-23T03:38:21.191Z,74.53
2019-04-23T03:38:55.839Z,74.78
2019-04-23T03:40:11.635Z,74.82
2019-04-23T03:41:15.713Z,74.34
2019-04-23T03:44:05.175Z,74.53
2019-04-23T03:45:16.706Z,75.45
2019-04-23T03:46:16.189Z,75.59
2019-04-23T03:47:13.842Z,74.53
2019-04-23T03:48:17.461Z,75.59
2019-04-23T03:49:19.532Z,74.44
2019-04-23T03:51:05.655Z,74.73
2019-04-23T03:53:18.331Z,74.24
2019-04-23T03:54:33.794Z,74.24
2019-04-23T03:55:14.100Z,74.44
2019-04-23T03:56:10.993Z,74.15
2019-04-23T03:57:24.657Z,74.44
2019-04-23T03:58:10.564Z,73.77
2019-04-23T03:59:11.763Z,73.92
2019-04-23T04:00:15.614Z,74.24
2019-04-23T04:01:12.295Z,74.21
2019-04-23T04:03:25.042Z,74.69
2019-04-23T04:05:10.777Z,75.30
2019-04-23T04:08:18.283Z,75.74
2019-04-23T04:10:11.249Z,74.30
2019-04-23T04:11:21.694Z,74.40
2019-04-23T04:12:14.935Z,74.69
2019-04-23T04:13:06.725Z,74.69
2019-04-23T04:14:25.204Z,74.40
2019-04-23T04:18:25.897Z,75.26
2019-04-23T04:19:19.930Z,75.54
2019-04-23T04:20:15.275Z,76.12
2019-04-23T04:21:16.176Z,75.54
2019-04-23T04:22:21.742Z,75.45
2019-04-23T04:23:17.543Z,76.12
2019-04-23T04:24:29.678Z,75.54
2019-04-23T04:25:21.649Z,75.83
2019-04-23T04:26:14.328Z,75.64
2019-04-23T04:27:19.993Z,75.87
2019-04-23T04:28:14.638Z,75.87
2019-04-23T04:29:35.664Z,75.45
2019-04-23T04:31:13.754Z,75.93
2019-04-23T04:33:16.597Z,75.93
2019-04-23T04:34:21.638Z,76.03
2019-04-23T04:38:24.986Z,77.74
2019-04-23T04:39:02.947Z,78.13
2019-04-23T04:41:05.518Z,76.88
2019-04-23T04:41:09.777Z,77.26
2019-04-23T04:42:14.634Z,76.31
2019-04-23T04:44:37.374Z,75.74
2019-04-23T04:47:09.477Z,75.83
2019-04-23T04:48:05.895Z,76.60
2019-04-23T04:50:18.816Z,76.50
2019-04-23T04:51:22.104Z,76.60
2019-04-23T04:54:21.322Z,76.21
2019-04-23T04:56:14.570Z,77.26
2019-04-23T04:57:13.110Z,78.03
2019-04-23T04:58:02.968Z,78.03
2019-04-23T05:00:13.229Z,78.79
2019-04-23T05:01:13.827Z,78.03
2019-04-23T05:02:17.403Z,78.03
2019-04-23T05:03:22.284Z,77.08
2019-04-23T05:04:14.520Z,76.98
2019-04-23T05:05:45.452Z,77.36
2019-04-23T05:06:21.185Z,77.26
2019-04-23T05:07:09.088Z,77.65
2019-04-23T05:08:05.743Z,77.17
2019-04-23T05:09:16.920Z,77.36
2019-04-23T05:12:16.622Z,77.26
2019-04-23T05:13:22.682Z,78.22
2019-04-23T05:14:23.465Z,79.27
2019-04-23T05:16:07.979Z,79.36
2019-04-23T05:17:13.505Z,79.75
2019-04-23T05:19:20.058Z,79.46
2019-04-23T05:20:08.736Z,79.27
2019-04-23T05:22:24.426Z,78.51
2019-04-23T05:25:02.456Z,80.04
2019-04-23T05:26:02.854Z,80.32
2019-04-23T05:27:03.557Z,80.04
2019-04-23T05:30:09.865Z,79.65
2019-04-23T05:31:05.791Z,79.85
2019-04-23T05:31:57.698Z,80.51
2019-04-23T05:33:07.252Z,80.61
2019-04-23T05:34:05.971Z,80.41
2019-04-23T05:35:03.335Z,80.13
2019-04-23T05:36:16.187Z,80.32
2019-04-23T05:37:00.184Z,79.36
2019-04-23T05:38:27.855Z,79.85
2019-04-23T05:39:12.070Z,79.94
2019-04-23T05:40:08.049Z,79.79
2019-04-23T05:41:09.939Z,80.17
2019-04-23T05:42:02.148Z,79.69
2019-04-23T05:43:03.295Z,79.31
2019-04-23T05:44:10.298Z,78.45
2019-04-23T05:46:04.496Z,78.55
2019-04-23T05:47:11.740Z,78.16
2019-04-23T05:48:06.769Z,78.16
2019-04-23T05:49:06.216Z,78.16
2019-04-23T05:50:11.519Z,78.26
2019-04-23T05:51:04.568Z,78.07
2019-04-23T05:53:05.849Z,78.26
2019-04-23T05:54:05.576Z,78.64
2019-04-23T05:55:02.436Z,79.31
2019-04-23T05:56:01.893Z,79.31
2019-04-23T05:58:06.749Z,79.22
2019-04-23T05:59:07.325Z,79.12
2019-04-23T06:00:02.355Z,79.41
2019-04-23T06:01:19.886Z,79.50
2019-04-23T06:02:07.433Z,80.36
2019-04-23T06:03:04.742Z,79.60
2019-04-23T06:05:03.848Z,79.02
2019-04-23T06:06:08.193Z,78.74
2019-04-23T06:07:20.564Z,78.16
2019-04-23T06:08:03.533Z,78.16
2019-04-23T06:11:03.904Z,77.59
2019-04-23T06:12:00.138Z,78.16
2019-04-23T06:12:59.606Z,78.11
2019-04-23T06:14:05.200Z,79.31
2019-04-23T06:14:57.507Z,79.83
2019-04-23T06:15:59.333Z,80.21
2019-04-23T06:17:09.630Z,80.07
2019-04-23T06:18:12.527Z,80.11
2019-04-23T06:20:03.125Z,80.11
2019-04-23T06:21:02.830Z,80.11
2019-04-23T06:22:06.034Z,79.93
2019-04-23T06:23:06.257Z,78.11
2019-04-23T06:24:15.114Z,77.53
2019-04-23T06:25:01.705Z,77.44
2019-04-23T06:26:17.855Z,78.30
2019-04-23T06:28:03.589Z,78.01
2019-04-23T06:29:06.747Z,76.96
2019-04-23T06:29:57.390Z,76.67
2019-04-23T06:31:04.990Z,76.57
2019-04-23T06:32:13.214Z,75.91
2019-04-23T06:33:04.326Z,75.43
2019-04-23T06:34:02.757Z,75.52
2019-04-23T06:34:56.690Z,75.81
2019-04-23T06:36:05.209Z,76.39
2019-04-23T06:37:00.472Z,76.20
2019-04-23T06:38:28.118Z,76.10
2019-04-23T06:38:57.111Z,75.43
2019-04-23T06:40:04.462Z,75.71
2019-04-23T06:41:06.843Z,75.14
2019-04-23T06:42:00.346Z,75.56
2019-04-23T06:42:57.930Z,75.27
2019-04-23T06:44:09.191Z,76.04
2019-04-23T06:45:57.503Z,76.71
2019-04-23T06:48:01.916Z,76.04
2019-04-23T06:49:02.045Z,76.23
2019-04-23T06:51:04.201Z,76.04
2019-04-23T06:52:54.605Z,76.67
2019-04-23T06:53:59.963Z,77.19
2019-04-23T06:55:01.139Z,77.28
2019-04-23T06:56:04.020Z,77.95
2019-04-23T06:57:09.031Z,78.24
2019-04-23T06:58:08.886Z,78.63
2019-04-23T06:58:58.900Z,79.39
2019-04-23T07:00:02.334Z,79.39
2019-04-23T07:01:00.373Z,79.49
2019-04-23T07:02:06.345Z,78.57
2019-04-23T07:03:06.033Z,78.66
2019-04-23T07:06:15.818Z,75.51
2019-04-23T07:07:25.632Z,74.84
2019-04-23T07:08:30.663Z,74.80
2019-04-23T07:09:09.542Z,75.37
2019-04-23T07:09:57.997Z,74.80
2019-04-23T07:11:11.083Z,74.22
2019-04-23T07:11:57.320Z,73.97
2019-04-23T07:13:10.576Z,73.79
2019-04-23T07:13:58.794Z,73.02
2019-04-23T07:15:11.633Z,72.73
2019-04-23T07:15:58.399Z,73.02
2019-04-23T07:16:58.375Z,72.92
2019-04-23T07:17:55.475Z,73.30
2019-04-23T07:19:04.394Z,73.40
2019-04-23T07:20:04.263Z,74.16
2019-04-23T07:21:02.185Z,74.55
2019-04-23T07:22:12.155Z,74.26
2019-04-23T07:23:08.355Z,74.45
2019-04-23T07:25:00.078Z,74.55
2019-04-23T07:26:10.540Z,76.18
2019-04-23T07:26:53.179Z,76.18
2019-04-23T07:27:56.911Z,75.60
2019-04-23T07:30:03.642Z,75.70
2019-04-23T07:30:59.981Z,75.45
2019-04-23T07:32:00.448Z,75.45
2019-04-23T07:32:59.588Z,75.45
2019-04-23T07:34:01.192Z,74.20
2019-04-23T07:36:01.842Z,75.79
2019-04-23T07:37:09.094Z,75.70
2019-04-23T07:38:08.939Z,75.93
2019-04-23T07:39:20.601Z,76.21
2019-04-23T07:40:19.929Z,75.89
2019-04-23T07:41:11.942Z,75.79
2019-04-23T07:42:15.165Z,75.41
2019-04-23T07:42:56.624Z,75.89
2019-04-23T07:44:07.175Z,76.94
2019-04-23T07:46:03.590Z,75.83
2019-04-23T07:47:11.536Z,76.98
2019-04-23T07:48:06.547Z,76.02
2019-04-23T07:48:56.502Z,75.45
2019-04-23T07:50:09.752Z,75.20
2019-04-23T07:50:52.133Z,74.68
2019-04-23T07:52:07.786Z,74.58
2019-04-23T07:53:11.540Z,75.35
2019-04-23T07:55:02.207Z,75.16
2019-04-23T07:56:03.689Z,75.73
2019-04-23T07:58:12.305Z,74.20
2019-04-23T07:59:07.412Z,72.96
2019-04-23T08:00:04.038Z,73.82
2019-04-23T08:01:01.910Z,75.54
2019-04-23T08:01:58.121Z,74.20
2019-04-23T08:03:08.436Z,75.07
2019-04-23T08:04:01.598Z,75.83
2019-04-23T08:05:55.615Z,74.49
2019-04-23T08:07:03.180Z,74.20
2019-04-23T08:08:59.651Z,74.52
2019-04-23T08:10:00.254Z,75.20
2019-04-23T08:11:19.175Z,74.62
2019-04-23T08:11:56.277Z,75.10
2019-04-23T08:13:00.974Z,74.91
2019-04-23T08:13:58.695Z,74.85
2019-04-23T08:15:05.150Z,74.43
2019-04-23T08:15:57.517Z,74.91
2019-04-23T08:16:59.055Z,75.58
2019-04-23T08:17:58.608Z,76.15
2019-04-23T08:19:59.605Z,75.71
2019-04-23T08:21:08.797Z,76.00
2019-04-23T08:22:07.206Z,75.90
2019-04-23T08:23:03.798Z,75.81
2019-04-23T08:24:02.294Z,75.65
2019-04-23T08:25:05.052Z,74.02
2019-04-23T08:26:04.599Z,73.74
2019-04-23T08:26:59.603Z,74.02
2019-04-23T08:27:57.462Z,73.93
2019-04-23T08:29:03.616Z,74.22
2019-04-23T08:29:55.421Z,73.97
2019-04-23T08:31:05.500Z,74.54
2019-04-23T08:32:00.569Z,74.26
2019-04-23T08:33:01.469Z,72.53
2019-04-23T08:34:15.178Z,73.30
2019-04-23T08:36:09.452Z,72.97
2019-04-23T08:37:07.219Z,72.97
2019-04-23T08:38:15.377Z,73.93
2019-04-23T08:38:57.635Z,73.83
2019-04-23T08:39:52.152Z,74.54
2019-04-23T08:41:14.261Z,73.93
2019-04-23T08:42:21.654Z,74.64
2019-04-23T08:43:12.894Z,74.93
2019-04-23T08:43:59.495Z,74.87
2019-04-23T08:45:11.969Z,74.01
2019-04-23T08:45:58.153Z,73.72
2019-04-23T08:47:02.966Z,72.75
2019-04-23T08:48:02.237Z,72.79
2019-04-23T08:49:06.777Z,72.50
2019-04-23T08:51:09.718Z,72.31
2019-04-23T08:52:10.525Z,72.50
2019-04-23T08:53:06.991Z,72.64
2019-04-23T08:53:56.895Z,72.16
2019-04-23T08:57:02.432Z,69.85
2019-04-23T08:57:56.177Z,71.29
2019-04-23T08:58:54.928Z,70.78
2019-04-23T08:59:58.951Z,71.64
2019-04-23T09:01:05.501Z,72.02
2019-04-23T09:02:20.704Z,72.69
2019-04-23T09:03:00.537Z,72.50
2019-04-23T09:03:58.065Z,73.21
2019-04-23T09:05:02.438Z,72.99
2019-04-23T09:06:00.648Z,73.50
2019-04-23T09:07:04.840Z,72.83
2019-04-23T09:08:56.949Z,70.04
2019-04-23T09:11:55.856Z,71.23
2019-04-23T09:13:08.765Z,71.14
2019-04-23T09:13:57.407Z,69.63
2019-04-23T09:15:00.865Z,68.15
2019-04-23T09:15:56.719Z,67.77
2019-04-23T09:16:57.635Z,67.86
2019-04-23T09:19:03.980Z,66.84
2019-04-23T09:20:17.255Z,65.78
2019-04-23T09:20:57.187Z,65.46
2019-04-23T09:22:06.112Z,65.27
2019-04-23T09:22:53.106Z,65.94
2019-04-23T09:25:08.406Z,66.14
2019-04-23T09:26:58.580Z,63.95
2019-04-23T09:27:59.930Z,65.59
2019-04-23T09:28:58.040Z,66.94
2019-04-23T09:30:00.974Z,67.32
2019-04-23T09:31:02.821Z,66.74
2019-04-23T09:32:13.514Z,66.55
2019-04-23T09:33:04.106Z,66.74
2019-04-23T09:34:00.176Z,68.19
2019-04-23T09:35:55.398Z,68.15
2019-04-23T09:39:00.501Z,65.50
2019-04-23T09:39:58.821Z,66.58
2019-04-23T09:41:51.773Z,64.98
2019-04-23T09:43:00.490Z,66.62
2019-04-23T09:44:03.081Z,65.17
2019-04-23T09:45:56.260Z,64.59
2019-04-23T09:47:01.929Z,64.34
2019-04-23T09:49:18.731Z,65.59
2019-04-23T09:50:00.983Z,65.56
2019-04-23T09:50:57.153Z,64.31
2019-04-23T09:52:01.079Z,64.12
2019-04-23T09:53:11.526Z,64.02
2019-04-23T09:53:57.763Z,64.31
2019-04-23T09:55:04.900Z,65.75
2019-04-23T09:56:06.795Z,65.27
2019-04-23T09:56:52.641Z,64.40
2019-04-23T09:59:01.206Z,66.14
2019-04-23T10:00:01.846Z,66.71
2019-04-23T10:00:53.545Z,64.92
2019-04-23T10:01:50.159Z,65.11
2019-04-23T10:02:47.365Z,64.92
2019-04-23T10:03:41.749Z,62.99
2019-04-23T10:04:44.866Z,62.03
2019-04-23T10:05:39.650Z,62.32
2019-04-23T10:06:35.962Z,61.07
2019-04-23T10:07:40.677Z,63.09
2019-04-23T10:08:35.649Z,63.18
2019-04-23T10:09:30.059Z,62.60
2019-04-23T10:10:30.275Z,61.65
2019-04-23T10:11:30.517Z,62.60
2019-04-23T10:12:30.322Z,62.12
2019-04-23T10:13:29.822Z,60.77
2019-04-23T10:14:30.451Z,61.35
2019-04-23T10:15:34.951Z,62.38
2019-04-23T10:16:33.471Z,61.65
2019-04-23T10:17:29.512Z,60.65
2019-04-23T10:18:30.962Z,60.94
2019-04-23T10:19:30.789Z,60.97
2019-04-23T10:20:30.819Z,61.25
2019-04-23T10:21:29.451Z,59.43
2019-04-23T10:22:32.298Z,59.43
2019-04-23T10:23:29.627Z,60.20
2019-04-23T10:24:30.810Z,59.14
2019-04-23T10:25:30.172Z,59.33
2019-04-23T10:26:30.286Z,59.40
2019-04-23T10:27:29.545Z,60.20
2019-04-23T10:28:29.650Z,59.43
2019-04-23T10:29:29.919Z,60.10
2019-04-23T10:30:30.949Z,60.20
2019-04-23T10:31:29.281Z,60.30
2019-04-23T10:32:29.803Z,60.13
2019-04-23T10:33:29.647Z,59.55
2019-04-23T10:34:30.488Z,58.30
2019-04-23T10:35:38.679Z,58.49
2019-04-23T10:36:31.678Z,58.52
2019-04-23T10:37:39.403Z,59.13
2019-04-23T10:38:30.680Z,58.84
2019-04-23T10:39:35.308Z,57.78
2019-04-23T10:40:34.802Z,57.71
2019-04-23T10:41:30.595Z,56.16
2019-04-23T10:42:32.032Z,54.79
2019-04-23T10:43:31.494Z,55.73
2019-04-23T10:44:30.674Z,56.11
2019-04-23T10:45:47.919Z,57.07
2019-04-23T10:46:48.982Z,55.54
2019-04-23T10:48:02.672Z,56.01
2019-04-23T10:49:01.954Z,56.11
2019-04-23T10:50:00.142Z,54.66
2019-04-23T10:52:04.965Z,55.24
2019-04-23T10:53:05.010Z,55.92
2019-04-23T10:54:02.861Z,55.94
2019-04-23T10:54:59.388Z,54.88
2019-04-23T10:57:54.803Z,55.76
2019-04-23T10:58:58.467Z,55.05
2019-04-23T10:59:55.827Z,55.51
2019-04-23T11:01:04.473Z,56.76
2019-04-23T11:02:09.915Z,55.79
2019-04-23T11:02:59.376Z,55.70
2019-04-23T11:04:12.504Z,55.63
2019-04-23T11:06:00.336Z,56.09
2019-04-23T11:07:09.532Z,56.85
2019-04-23T11:07:47.498Z,57.14
2019-04-23T11:08:50.136Z,56.09
2019-04-23T11:10:59.233Z,54.57
2019-04-23T11:12:03.778Z,54.09
2019-04-23T11:14:04.580Z,54.31
2019-04-23T11:15:11.265Z,52.19
2019-04-23T11:16:40.149Z,50.45
2019-04-23T11:20:58.269Z,47.75
2019-04-23T11:22:04.321Z,47.55
2019-04-23T11:22:48.263Z,50.54
2019-04-23T11:23:59.542Z,51.22
2019-04-23T11:24:59.985Z,49.10
2019-04-23T11:25:51.539Z,48.33
2019-04-23T11:26:55.776Z,47.75
2019-04-23T11:28:02.607Z,48.42
2019-04-23T11:28:51.904Z,48.90
2019-04-23T11:30:05.691Z,49.48
2019-04-23T11:31:03.723Z,50.54
2019-04-23T11:32:09.103Z,50.52
2019-04-23T11:34:00.965Z,50.74
2019-04-23T11:36:22.119Z,51.34
2019-04-23T11:39:00.518Z,50.40
2019-04-23T11:40:04.175Z,49.24
2019-04-23T11:40:53.408Z,51.17
2019-04-23T11:43:15.519Z,50.89
2019-04-23T11:43:58.899Z,51.75
2019-04-23T11:44:56.373Z,51.78
2019-04-23T11:51:26.577Z,49.55
2019-04-23T11:52:56.926Z,50.28
2019-04-23T11:54:01.789Z,49.51
2019-04-23T11:55:05.209Z,49.80
2019-04-23T11:57:27.172Z,49.22
2019-04-23T11:58:07.508Z,49.22
2019-04-23T11:58:52.461Z,49.80
2019-04-23T12:01:02.257Z,53.88
2019-04-23T12:02:05.715Z,51.37
2019-04-23T12:03:04.191Z,49.05
2019-04-23T12:04:05.002Z,49.44
2019-04-23T12:05:03.751Z,49.37
2019-04-23T12:05:58.349Z,48.97
2019-04-23T12:07:03.736Z,49.85
2019-04-23T12:08:03.810Z,50.84
2019-04-23T12:08:56.297Z,51.71
2019-04-23T12:10:07.791Z,51.90
2019-04-23T12:11:27.688Z,51.03
2019-04-23T12:12:57.547Z,50.16
2019-04-23T12:14:03.615Z,49.41
2019-04-23T12:14:54.288Z,51.25
2019-04-23T12:15:53.609Z,49.99
2019-04-23T12:17:08.023Z,49.15
2019-04-23T12:19:12.828Z,47.11
2019-04-23T12:20:52.731Z,47.02
2019-04-23T12:22:01.462Z,45.66
2019-04-23T12:23:07.480Z,46.75
2019-04-23T12:25:06.507Z,45.98
2019-04-23T12:26:07.312Z,47.74
2019-04-23T12:27:00.788Z,46.08
2019-04-23T12:27:41.966Z,46.17
2019-04-23T12:29:06.253Z,46.53
2019-04-23T12:29:52.724Z,46.83
2019-04-23T12:30:57.208Z,47.99
2019-04-23T12:31:56.693Z,46.15
2019-04-23T12:33:13.335Z,47.21
2019-04-23T12:33:57.570Z,48.39
2019-04-23T12:35:51.527Z,47.45
2019-04-23T12:36:56.896Z,46.39
2019-04-23T12:38:04.117Z,45.34
2019-04-23T12:38:56.756Z,44.86
2019-04-23T12:40:00.556Z,43.41
2019-04-23T12:41:52.848Z,44.98
2019-04-23T12:43:02.536Z,44.68
2019-04-23T12:43:53.241Z,44.49
2019-04-23T12:45:05.034Z,42.85
2019-04-23T12:45:47.316Z,43.26
2019-04-23T12:47:05.156Z,43.26
2019-04-23T12:49:13.052Z,42.65
2019-04-23T12:50:19.344Z,42.75
2019-04-23T12:51:08.830Z,43.82
2019-04-23T12:51:55.502Z,43.91
2019-04-23T12:53:06.985Z,44.68
2019-04-23T12:53:50.645Z,42.07
2019-04-23T12:55:57.838Z,42.97
2019-04-23T12:58:45.007Z,44.40
2019-04-23T12:59:56.905Z,44.21
2019-04-23T13:01:14.176Z,42.55
2019-04-23T13:01:55.616Z,43.23
2019-04-23T13:03:45.537Z,46.12
2019-04-23T13:04:51.585Z,46.63
2019-04-23T13:05:41.986Z,46.36
2019-04-23T13:06:51.097Z,44.54
2019-04-23T13:07:52.472Z,45.15
2019-04-23T13:08:54.302Z,44.35
2019-04-23T13:10:15.871Z,42.13
2019-04-23T13:11:01.702Z,41.25
2019-04-23T13:11:58.041Z,41.17
2019-04-23T13:13:03.949Z,41.37
2019-04-23T13:13:58.905Z,43.82
2019-04-23T13:14:55.896Z,41.86
2019-04-23T13:15:53.135Z,40.69
2019-04-23T13:17:55.526Z,41.10
2019-04-23T13:19:06.423Z,42.24
2019-04-23T13:20:03.736Z,42.44
2019-04-23T13:20:51.573Z,44.10
2019-04-23T13:23:01.562Z,42.09
2019-04-23T13:23:51.165Z,41.74
2019-04-23T13:24:57.955Z,41.96
2019-04-23T13:25:54.204Z,41.32
2019-04-23T13:26:54.879Z,39.88
2019-04-23T13:28:02.865Z,39.14
2019-04-23T13:28:53.925Z,37.97
2019-04-23T13:29:56.594Z,36.79
2019-04-23T13:31:51.841Z,37.50
2019-04-23T13:33:01.144Z,37.31
2019-04-23T13:33:57.684Z,36.14
2019-04-23T13:35:11.188Z,34.59
2019-04-23T13:36:53.493Z,36.24
2019-04-23T13:37:59.351Z,37.41
2019-04-23T13:39:03.293Z,37.29
2019-04-23T13:39:51.531Z,37.37
2019-04-23T13:41:01.478Z,38.03
2019-04-23T13:41:54.066Z,37.62
2019-04-23T13:43:14.425Z,38.15
2019-04-23T13:44:06.088Z,36.69
2019-04-23T13:45:01.809Z,37.18
2019-04-23T13:46:03.748Z,38.37
2019-04-23T13:47:00.973Z,38.37
2019-04-23T13:48:00.633Z,37.32
2019-04-23T13:48:49.177Z,37.51
2019-04-23T13:49:57.117Z,39.20
2019-04-23T13:52:02.493Z,38.60
2019-04-23T13:53:56.135Z,38.81
2019-04-23T13:55:04.288Z,36.75
2019-04-23T13:55:53.007Z,37.45
2019-04-23T13:58:09.717Z,37.68
2019-04-23T13:58:59.687Z,38.05
2019-04-23T13:59:55.994Z,37.66
2019-04-23T14:01:01.012Z,38.05
2019-04-23T14:01:46.730Z,37.27
2019-04-23T14:02:56.098Z,36.69
2019-04-23T14:04:14.156Z,37.00
2019-04-23T14:04:59.743Z,37.58
2019-04-23T14:06:04.892Z,35.83
2019-04-23T14:09:00.150Z,35.75
2019-04-23T14:10:55.362Z,36.10
2019-04-23T14:11:51.929Z,36.40
2019-04-23T14:13:08.405Z,36.43
2019-04-23T14:15:16.206Z,37.39
2019-04-23T14:17:00.232Z,35.94
2019-04-23T14:18:11.505Z,36.04
2019-04-23T14:18:58.645Z,34.99
2019-04-23T14:19:56.435Z,35.22
2019-04-23T14:21:00.894Z,34.71
2019-04-23T14:21:51.395Z,34.91
2019-04-23T14:24:11.900Z,35.65
2019-04-23T14:25:05.060Z,34.37
2019-04-23T14:26:10.905Z,35.15
2019-04-23T14:27:14.879Z,35.53
2019-04-23T14:28:04.450Z,36.12
2019-04-23T14:28:55.282Z,36.10
2019-04-23T14:30:07.172Z,36.47
2019-04-23T14:32:04.263Z,36.18
2019-04-23T14:32:54.116Z,36.28
2019-04-23T14:35:07.034Z,36.98
2019-04-23T14:35:56.457Z,37.82
2019-04-23T14:36:57.744Z,37.52
2019-04-23T14:38:09.215Z,37.24
2019-04-23T14:39:53.070Z,36.04
2019-04-23T14:41:05.379Z,36.52
2019-04-23T14:42:03.677Z,37.12
2019-04-23T14:43:04.322Z,37.43
2019-04-23T14:45:00.431Z,35.58
2019-04-23T14:47:00.653Z,37.54
2019-04-23T14:48:02.801Z,36.57
2019-04-23T14:48:57.942Z,36.22
2019-04-23T14:50:17.360Z,37.70
2019-04-23T14:51:02.370Z,37.35
2019-04-23T14:53:10.614Z,33.75
2019-04-23T14:54:17.030Z,33.36
2019-04-23T14:55:35.431Z,33.53
2019-04-23T14:56:13.236Z,34.52
2019-04-23T14:56:58.853Z,34.73
2019-04-23T14:58:02.549Z,34.88
2019-04-23T14:59:57.509Z,34.69
2019-04-23T15:01:06.880Z,33.70
2019-04-23T15:01:58.103Z,34.17
2019-04-23T15:03:02.966Z,33.70
2019-04-23T15:03:50.620Z,32.97
2019-04-23T15:04:56.086Z,32.58
2019-04-23T15:06:04.961Z,31.82
2019-04-23T15:07:04.096Z,32.65
2019-04-23T15:07:58.403Z,37.00
2019-04-23T15:09:19.684Z,35.94
2019-04-23T15:10:03.022Z,36.25
2019-04-23T15:11:06.394Z,35.69
2019-04-23T15:12:01.752Z,34.94
2019-04-23T15:13:53.827Z,34.73
2019-04-23T15:15:00.028Z,35.59
2019-04-23T15:16:04.755Z,34.00
2019-04-23T15:17:00.039Z,33.92
2019-04-23T15:17:56.084Z,32.58
2019-04-23T15:19:55.428Z,33.59
2019-04-23T15:21:08.530Z,33.41
2019-04-23T15:24:03.984Z,33.30
2019-04-23T15:25:01.345Z,33.30
2019-04-23T15:26:40.863Z,33.28
2019-04-23T15:28:32.677Z,32.04
2019-04-23T15:29:45.815Z,32.81
2019-04-23T15:31:00.731Z,32.84
2019-04-23T15:31:57.627Z,33.53
2019-04-23T15:33:03.934Z,33.64
2019-04-23T15:34:00.947Z,32.76
2019-04-23T15:35:05.323Z,32.89
2019-04-23T15:37:15.558Z,33.11
2019-04-23T15:38:24.814Z,33.65
2019-04-23T15:41:02.584Z,32.89
2019-04-23T15:42:04.908Z,32.34
2019-04-23T15:42:58.408Z,31.96
2019-04-23T15:43:52.250Z,31.25
2019-04-23T15:44:56.023Z,32.16
2019-04-23T15:45:57.345Z,31.87
2019-04-23T15:46:56.473Z,32.66
2019-04-23T15:48:00.379Z,32.07